createdAt,value
2023-05-24T00:00:20.603Z,10.54292
2023-05-24T00:05:21.518Z,10.52192
2023-05-24T00:10:22.426Z,10.47831
2023-05-24T00:15:23.345Z,10.41726
2023-05-24T00:20:24.313Z,10.31485
2023-05-24T00:25:25.289Z,10.27383
2023-05-24T00:30:26.172Z,10.23603
2023-05-24T00:35:27.072Z,10.23829
2023-05-24T00:40:27.965Z,10.20082
2023-05-24T00:45:28.865Z,10.20986
2023-05-24T00:50:29.799Z,10.1417
2023-05-24T00:55:30.774Z,10.00732
2023-05-24T01:00:31.681Z,9.95434
2023-05-24T01:05:32.619Z,9.88327
2023-05-24T01:10:33.528Z,9.84289
2023-05-24T01:15:34.708Z,9.78701
2023-05-24T01:20:35.691Z,9.91493
2023-05-24T01:25:36.633Z,10.06805
2023-05-24T01:30:37.535Z,10.1304
2023-05-24T01:35:38.440Z,10.06191
2023-05-24T01:40:39.443Z,9.96565
2023-05-24T01:45:40.368Z,9.9327
2023-05-24T01:50:41.411Z,10.01862
2023-05-24T01:55:42.581Z,10.02153
2023-05-24T02:00:43.796Z,10.03316
2023-05-24T02:05:44.898Z,10.07225
2023-05-24T02:10:45.819Z,10.09906
2023-05-24T02:15:46.721Z,10.02347
2023-05-24T02:20:47.681Z,9.95757
2023-05-24T02:25:48.576Z,9.89975
2023-05-24T02:30:49.487Z,9.84321
2023-05-24T02:35:50.478Z,9.91622
2023-05-24T02:40:51.403Z,9.93593
2023-05-24T02:45:52.342Z,9.93528
2023-05-24T02:50:53.283Z,9.95111
2023-05-24T02:55:54.251Z,10.03413
2023-05-24T03:00:55.162Z,10.05416
2023-05-24T03:05:56.064Z,10.15139
2023-05-24T03:10:56.986Z,10.1262
2023-05-24T03:15:57.921Z,10.02315
2023-05-24T03:20:58.933Z,9.87358
2023-05-24T03:25:59.871Z,9.81511
2023-05-24T03:31:00.779Z,9.8051
2023-05-24T03:36:01.834Z,9.85678
2023-05-24T03:41:02.757Z,9.76601
2023-05-24T03:46:03.715Z,9.82125
2023-05-24T03:51:04.698Z,9.80607
2023-05-24T03:56:05.635Z,9.82028
2023-05-24T04:01:06.592Z,9.8458
2023-05-24T04:06:07.591Z,9.79928
2023-05-24T04:11:08.590Z,9.85549
2023-05-24T04:16:09.508Z,9.79217
2023-05-24T04:21:10.499Z,9.89975
2023-05-24T04:26:11.445Z,9.95434
2023-05-24T04:31:12.486Z,9.96532
2023-05-24T04:36:13.466Z,9.95369
2023-05-24T04:41:14.396Z,10.0729
2023-05-24T04:46:15.325Z,10.10391
2023-05-24T04:51:16.366Z,10.04641
2023-05-24T04:56:17.264Z,10.00344
2023-05-24T05:01:18.261Z,10.05674
2023-05-24T05:06:19.193Z,10.09325
2023-05-24T05:11:20.093Z,10.03058
2023-05-24T05:16:21.129Z,10.08549
2023-05-24T05:21:22.041Z,10.11005
2023-05-24T05:26:22.943Z,10.14009
2023-05-24T05:31:23.802Z,10.29676
2023-05-24T05:36:24.676Z,10.2706
2023-05-24T05:41:25.565Z,10.34554
2023-05-24T05:46:26.492Z,10.23926
2023-05-24T05:51:27.481Z,10.34586
2023-05-24T05:56:28.365Z,10.40757
2023-05-24T06:01:29.226Z,10.45699
2023-05-24T06:06:30.128Z,10.50254
2023-05-24T06:11:31.052Z,10.44245
2023-05-24T06:16:31.965Z,10.27253
2023-05-24T06:21:32.921Z,10.27092
2023-05-24T06:26:33.824Z,10.32648
2023-05-24T06:31:35.149Z,10.44148
2023-05-24T06:36:36.174Z,10.49608
2023-05-24T06:41:37.079Z,10.57329
2023-05-24T06:46:38.065Z,10.73125
2023-05-24T06:51:39.005Z,10.99776
2023-05-24T06:56:40.132Z,11.08789
2023-05-24T07:01:41.102Z,11.11341
2023-05-24T07:06:42.077Z,11.22712
2023-05-24T07:11:43.034Z,11.27235
2023-05-24T07:16:44.098Z,11.52045
2023-05-24T07:21:45.036Z,11.7343
2023-05-24T07:26:45.925Z,11.83639
2023-05-24T07:31:46.871Z,11.75078
2023-05-24T07:36:47.796Z,11.68035
2023-05-24T07:41:48.699Z,11.76144
2023-05-24T07:46:49.657Z,11.77339
2023-05-24T07:51:50.785Z,11.88323
2023-05-24T07:56:51.772Z,11.93911
2023-05-24T08:01:52.807Z,11.73269
2023-05-24T08:06:53.841Z,11.81862
2023-05-24T08:11:54.765Z,11.94234
2023-05-24T08:16:55.722Z,12.03312
2023-05-24T08:21:56.800Z,12.0945
2023-05-24T08:26:57.702Z,12.16363
2023-05-24T08:31:58.714Z,12.1969
2023-05-24T08:36:59.768Z,12.38201
2023-05-24T08:42:09.395Z,12.46762
2023-05-24T08:47:11.287Z,12.66306
2023-05-24T08:52:12.273Z,12.73607
2023-05-24T08:57:13.147Z,12.67017
2023-05-24T09:02:14.151Z,12.65176
2023-05-24T09:07:15.270Z,12.49152
2023-05-24T09:12:21.847Z,12.38201
2023-05-24T09:17:31.359Z,12.40075
2023-05-24T09:22:34.281Z,12.54418
2023-05-24T09:27:35.405Z,12.55161
2023-05-24T09:32:36.456Z,12.6272
2023-05-24T09:37:37.400Z,12.56066
2023-05-24T09:42:38.320Z,12.44501
2023-05-24T09:47:39.279Z,12.63948
2023-05-24T09:52:40.183Z,12.71152
2023-05-24T09:57:41.102Z,12.72089
2023-05-24T10:41:46.158Z,12.88661
2023-05-24T10:46:47.598Z,12.9047
2023-05-24T10:51:48.643Z,12.81522
2023-05-24T10:56:49.677Z,12.85108
2023-05-24T11:01:50.650Z,12.96576
2023-05-24T11:06:51.678Z,13.12535
2023-05-24T11:11:52.578Z,13.20772
2023-05-24T11:16:53.571Z,13.27524
2023-05-24T11:21:54.600Z,13.62026
2023-05-24T11:26:55.470Z,14.15394
2023-05-24T11:31:56.363Z,14.35747
2023-05-24T11:36:57.279Z,14.46408
2023-05-24T11:41:58.212Z,14.56455
2023-05-24T11:46:59.093Z,14.49444
2023-05-24T11:52:00.014Z,14.50543
2023-05-24T11:57:00.903Z,14.76096
2023-05-24T12:02:02.046Z,14.9128
2023-05-24T12:07:03.066Z,14.85045
2023-05-24T12:12:04.127Z,14.96804
2023-05-24T12:17:05.126Z,15.05656
2023-05-24T12:22:06.096Z,14.87856
2023-05-24T12:27:07.157Z,14.77389
2023-05-24T12:32:08.019Z,14.76678
2023-05-24T12:37:08.903Z,14.77518
2023-05-24T12:42:09.829Z,14.86951
2023-05-24T12:47:10.879Z,15.14023
2023-05-24T12:52:12.434Z,15.56279
2023-05-24T12:57:13.583Z,15.766
2023-05-24T13:02:14.523Z,16.52713
2023-05-24T13:07:15.444Z,17.37743
2023-05-24T13:12:16.340Z,17.52313
2023-05-24T13:17:17.433Z,16.84308
2023-05-24T13:22:18.333Z,16.61274
2023-05-24T13:27:19.227Z,16.29872
2023-05-24T13:32:20.117Z,16.16724
2023-05-24T13:37:21.057Z,16.73615
2023-05-24T13:42:22.005Z,17.07504
2023-05-24T13:47:35.225Z,16.89639
2023-05-24T13:52:40.057Z,17.06664
2023-05-24T13:57:50.986Z,18.07267
2023-05-24T14:02:52.536Z,18.53531
2023-05-24T14:07:53.668Z,19.56526
2023-05-24T14:13:11.248Z,19.52358
2023-05-24T14:18:18.813Z,19.65345
2023-05-24T14:23:19.733Z,19.15851
2023-05-24T14:28:20.694Z,18.69458
2023-05-24T14:33:21.602Z,19.29614
2023-05-24T14:38:22.511Z,20.0686
2023-05-24T14:43:23.456Z,19.51033
2023-05-24T14:48:24.358Z,19.33491
2023-05-24T14:53:25.264Z,19.37464
2023-05-24T14:58:26.146Z,19.42181
2023-05-24T15:03:27.161Z,19.77848
2023-05-24T15:08:28.217Z,19.34912
2023-05-24T15:13:29.131Z,18.85256
2023-05-24T15:18:30.041Z,18.89004
2023-05-24T15:23:30.988Z,19.33103
2023-05-24T15:28:31.892Z,19.31681
2023-05-24T15:33:32.940Z,19.05933
2023-05-24T15:38:34.012Z,19.4651
2023-05-24T15:43:35.189Z,19.40953
2023-05-24T15:48:36.471Z,18.77502
2023-05-24T15:53:37.398Z,18.90005
2023-05-24T15:58:38.320Z,18.77502
2023-05-24T16:03:39.343Z,18.84674
2023-05-24T16:08:40.299Z,18.51495
2023-05-24T16:13:41.187Z,18.35471
2023-05-24T16:18:42.112Z,18.20965
2023-05-24T16:23:43.044Z,18.11758
2023-05-24T16:28:43.980Z,17.89595
2023-05-24T16:33:44.955Z,17.84459
2023-05-24T16:38:45.893Z,17.9134
2023-05-24T16:43:46.788Z,17.95701
2023-05-24T16:48:47.813Z,17.74799
2023-05-24T16:53:48.771Z,17.3335
2023-05-24T16:58:49.719Z,17.33705
2023-05-24T17:03:50.828Z,16.96843
2023-05-24T17:08:51.835Z,16.76555
2023-05-24T17:13:52.747Z,16.6234
2023-05-24T17:18:53.797Z,16.55847
2023-05-24T17:23:54.718Z,16.61597
2023-05-24T17:28:55.669Z,16.5281
2023-05-24T17:33:56.574Z,16.3152
2023-05-24T17:38:57.478Z,16.17499
2023-05-24T17:43:58.396Z,15.98923
2023-05-24T17:48:59.357Z,15.9818
2023-05-24T17:54:00.251Z,15.88133
2023-05-24T17:59:01.461Z,15.8949
2023-05-24T18:04:02.792Z,15.80703
2023-05-24T18:09:03.683Z,15.76244
2023-05-24T18:14:04.623Z,15.65713
2023-05-24T18:19:05.536Z,15.65616
2023-05-24T18:24:06.692Z,15.44326
2023-05-24T18:29:07.779Z,15.47104
2023-05-24T18:34:08.800Z,15.40869
2023-05-24T18:39:09.724Z,15.26138
2023-05-24T18:44:10.652Z,15.1454
2023-05-24T18:49:11.551Z,15.1215
2023-05-24T18:54:12.492Z,14.99421
2023-05-24T18:59:13.426Z,14.80264
2023-05-24T19:04:14.341Z,14.6634
2023-05-24T19:09:15.272Z,14.52643
2023-05-24T19:14:16.236Z,14.41723
2023-05-24T19:19:17.154Z,14.27638
2023-05-24T19:24:18.083Z,14.17817
2023-05-24T19:29:18.980Z,14.01697
2023-05-24T19:34:19.892Z,13.80795
2023-05-24T19:39:20.832Z,13.67841
2023-05-24T19:44:21.864Z,13.53465
2023-05-24T19:49:22.789Z,13.39703
2023-05-24T19:54:23.697Z,13.241
2023-05-24T19:59:24.636Z,13.10564
2023-05-24T20:04:25.559Z,13.04878
2023-05-24T20:09:26.483Z,12.92247
2023-05-24T20:14:27.428Z,12.91246
2023-05-24T20:19:28.355Z,12.82426
2023-05-24T20:24:29.302Z,12.78518
2023-05-24T20:29:30.222Z,12.69472
2023-05-24T20:34:31.152Z,12.5949
2023-05-24T20:39:32.061Z,12.45244
2023-05-24T20:44:32.993Z,12.18721
2023-05-24T20:49:34.084Z,12.12131
2023-05-24T20:54:35.053Z,12.00631
2023-05-24T20:59:36.233Z,11.95236
2023-05-24T21:04:37.177Z,11.8955
2023-05-24T21:09:38.077Z,11.81183
2023-05-24T21:14:39.020Z,11.70491
2023-05-24T21:19:39.944Z,11.57956
2023-05-24T21:24:40.870Z,11.50462
2023-05-24T21:29:41.924Z,11.40027
2023-05-24T21:34:42.893Z,11.32985
2023-05-24T21:39:43.801Z,11.367
2023-05-24T21:44:44.760Z,11.33437
2023-05-24T21:49:45.678Z,11.346
2023-05-24T21:54:46.628Z,11.31079
2023-05-24T21:59:47.623Z,11.26298
2023-05-24T22:04:48.554Z,11.22971
2023-05-24T22:09:49.498Z,11.08983
2023-05-24T22:14:50.392Z,10.95674
2023-05-24T22:19:51.479Z,10.90957
2023-05-24T22:24:52.580Z,10.95544
2023-05-24T22:29:53.463Z,10.96481
2023-05-24T22:34:54.402Z,10.89503
2023-05-24T22:39:55.310Z,10.88308
2023-05-24T22:44:56.257Z,10.8188
2023-05-24T22:49:57.169Z,10.78197
2023-05-24T22:54:58.096Z,10.72511
2023-05-24T22:59:59.010Z,10.70412
2023-05-24T23:04:59.971Z,10.57329
2023-05-24T23:10:00.908Z,10.56715
2023-05-24T23:15:01.868Z,10.50125
2023-05-24T23:20:02.845Z,10.4712
2023-05-24T23:25:03.779Z,10.31162
2023-05-24T23:30:04.638Z,10.2412
2023-05-24T23:35:05.514Z,10.18111
2023-05-24T23:40:06.408Z,10.16819
2023-05-24T23:45:07.318Z,10.11457
2023-05-24T23:50:08.205Z,10.0183
2023-05-24T23:55:09.201Z,9.94142
